sensor_id;sensor_type;location;lat;lon;timestamp;P1;durP1;ratioP1;P2;durP2;ratioP2
21120;SDS011;12519;43.318;21.898;2023-04-01T00:04:17;21.0;;;15.0;;
21120;SDS011;12519;43.318;21.898;2023-04-01T00:08:54;20.0;;;14.0;;
21120;SDS011;12519;43.318;21.898;2023-04-01T00:13:31;20.0;;;14.0;;
21120;SDS011;12519;43.318;21.898;2023-04-01T00:18:09;20.0;;;14.0;;
21120;SDS011;12519;43.318;21.898;2023-04-01T00:22:48;18.0;;;13.0;;
21120;SDS011;12519;43.318;21.898;2023-04-01T00:27:25;18.0;;;13.0;;
21120;SDS011;12519;43.318;21.898;2023-04-01T00:32:02;12.0;;;10.0;;
21120;SDS011;12519;43.318;21.898;2023-04-01T00:36:40;12.0;;;10.0;;
21120;SDS011;12519;43.318;21.898;2023-04-01T00:41:18;7.0;;;6.0;;
21120;SDS011;12519;43.318;21.898;2023-04-01T00:45:57;7.0;;;6.0;;
21120;SDS011;12519;43.318;21.898;2023-04-01T00:50:34;9.0;;;7.0;;
21120;SDS011;12519;43.318;21.898;2023-04-01T00:55:32;9.0;;;7.0;;
21120;SDS011;12519;43.318;21.898;2023-04-01T01:00:35;11.0;;;8.0;;
21120;SDS011;12519;43.318;21.898;2023-04-01T01:05:14;11.0;;;8.0;;
21120;SDS011;12519;43.318;21.898;2023-04-01T01:10:46;10.0;;;8.0;;
21120;SDS011;12519;43.318;21.898;2023-04-01T01:15:26;10.0;;;8.0;;
21120;SDS011;12519;43.318;21.898;2023-04-01T01:20:39;8.0;;;8.0;;
21120;SDS011;12519;43.318;21.898;2023-04-01T01:26:08;8.0;;;8.0;;
21120;SDS011;12519;43.318;21.898;2023-04-01T01:31:30;8.0;;;8.0;;
21120;SDS011;12519;43.318;21.898;2023-04-01T01:36:31;8.0;;;8.0;;
21120;SDS011;12519;43.318;21.898;2023-04-01T01:41:09;8.0;;;7.0;;
21120;SDS011;12519;43.318;21.898;2023-04-01T01:45:58;8.0;;;7.0;;
21120;SDS011;12519;43.318;21.898;2023-04-01T01:50:51;14.0;;;9.0;;
21120;SDS011;12519;43.318;21.898;2023-04-01T01:55:30;14.0;;;9.0;;
21120;SDS011;12519;43.318;21.898;2023-04-01T02:00:16;19.0;;;11.0;;
21120;SDS011;12519;43.318;21.898;2023-04-01T02:04:56;19.0;;;11.0;;
21120;SDS011;12519;43.318;21.898;2023-04-01T02:09:36;16.0;;;10.0;;
21120;SDS011;12519;43.318;21.898;2023-04-01T02:14:16;16.0;;;10.0;;
21120;SDS011;12519;43.318;21.898;2023-04-01T02:19:04;12.0;;;10.0;;
21120;SDS011;12519;43.318;21.898;2023-04-01T02:23:45;12.0;;;10.0;;
21120;SDS011;12519;43.318;21.898;2023-04-01T02:28:24;12.0;;;10.0;;
21120;SDS011;12519;43.318;21.898;2023-04-01T02:33:06;14.0;;;12.0;;
21120;SDS011;12519;43.318;21.898;2023-04-01T02:37:44;14.0;;;12.0;;
21120;SDS011;12519;43.318;21.898;2023-04-01T02:42:25;15.0;;;13.0;;
21120;SDS011;12519;43.318;21.898;2023-04-01T02:47:01;15.0;;;13.0;;
21120;SDS011;12519;43.318;21.898;2023-04-01T02:51:39;16.0;;;12.0;;
21120;SDS011;12519;43.318;21.898;2023-04-01T02:56:15;16.0;;;12.0;;
21120;SDS011;12519;43.318;21.898;2023-04-01T03:00:52;16.0;;;12.0;;
21120;SDS011;12519;43.318;21.898;2023-04-01T03:05:28;16.0;;;12.0;;
21120;SDS011;12519;43.318;21.898;2023-04-01T03:10:06;18.0;;;12.0;;
21120;SDS011;12519;43.318;21.898;2023-04-01T03:14:45;18.0;;;12.0;;
21120;SDS011;12519;43.318;21.898;2023-04-01T03:19:22;19.0;;;13.0;;
21120;SDS011;12519;43.318;21.898;2023-04-01T03:23:59;19.0;;;13.0;;
21120;SDS011;12519;43.318;21.898;2023-04-01T03:28:36;19.0;;;13.0;;
21120;SDS011;12519;43.318;21.898;2023-04-01T03:33:13;14.0;;;11.0;;
21120;SDS011;12519;43.318;21.898;2023-04-01T03:37:50;14.0;;;11.0;;
21120;SDS011;12519;43.318;21.898;2023-04-01T03:42:29;10.0;;;9.0;;
21120;SDS011;12519;43.318;21.898;2023-04-01T03:47:06;10.0;;;9.0;;
21120;SDS011;12519;43.318;21.898;2023-04-01T03:51:43;12.0;;;9.0;;
21120;SDS011;12519;43.318;21.898;2023-04-01T03:56:20;12.0;;;9.0;;
21120;SDS011;12519;43.318;21.898;2023-04-01T04:00:56;15.0;;;9.0;;
21120;SDS011;12519;43.318;21.898;2023-04-01T04:05:33;15.0;;;9.0;;
21120;SDS011;12519;43.318;21.898;2023-04-01T04:10:09;11.0;;;8.0;;
21120;SDS011;12519;43.318;21.898;2023-04-01T04:14:46;11.0;;;8.0;;
21120;SDS011;12519;43.318;21.898;2023-04-01T04:19:22;7.0;;;6.0;;
21120;SDS011;12519;43.318;21.898;2023-04-01T04:23:58;7.0;;;6.0;;
21120;SDS011;12519;43.318;21.898;2023-04-01T04:28:38;7.0;;;6.0;;
21120;SDS011;12519;43.318;21.898;2023-04-01T04:33:16;8.0;;;6.0;;
21120;SDS011;12519;43.318;21.898;2023-04-01T04:37:53;8.0;;;6.0;;
21120;SDS011;12519;43.318;21.898;2023-04-01T04:42:29;8.0;;;7.0;;
21120;SDS011;12519;43.318;21.898;2023-04-01T04:47:05;8.0;;;7.0;;
21120;SDS011;12519;43.318;21.898;2023-04-01T04:51:42;8.0;;;8.0;;
21120;SDS011;12519;43.318;21.898;2023-04-01T04:56:18;8.0;;;8.0;;
21120;SDS011;12519;43.318;21.898;2023-04-01T05:00:57;9.0;;;9.0;;
21120;SDS011;12519;43.318;21.898;2023-04-01T05:05:34;9.0;;;9.0;;
21120;SDS011;12519;43.318;21.898;2023-04-01T05:10:10;12.0;;;10.0;;
21120;SDS011;12519;43.318;21.898;2023-04-01T05:14:46;12.0;;;10.0;;
21120;SDS011;12519;43.318;21.898;2023-04-01T05:19:22;15.0;;;10.0;;
21120;SDS011;12519;43.318;21.898;2023-04-01T05:23:59;15.0;;;10.0;;
21120;SDS011;12519;43.318;21.898;2023-04-01T05:28:35;15.0;;;10.0;;
21120;SDS011;12519;43.318;21.898;2023-04-01T05:33:14;13.0;;;10.0;;
21120;SDS011;12519;43.318;21.898;2023-04-01T05:37:51;13.0;;;10.0;;
21120;SDS011;12519;43.318;21.898;2023-04-01T05:42:28;11.0;;;10.0;;
21120;SDS011;12519;43.318;21.898;2023-04-01T05:47:05;11.0;;;10.0;;
21120;SDS011;12519;43.318;21.898;2023-04-01T05:51:43;11.0;;;10.0;;
21120;SDS011;12519;43.318;21.898;2023-04-01T05:56:20;11.0;;;10.0;;
21120;SDS011;12519;43.318;21.898;2023-04-01T06:01:00;11.0;;;9.0;;
21120;SDS011;12519;43.318;21.898;2023-04-01T06:05:44;11.0;;;9.0;;
21120;SDS011;12519;43.318;21.898;2023-04-01T06:10:21;18.0;;;15.0;;
21120;SDS011;12519;43.318;21.898;2023-04-01T06:15:38;18.0;;;15.0;;
21120;SDS011;12519;43.318;21.898;2023-04-01T06:20:50;26.0;;;21.0;;
21120;SDS011;12519;43.318;21.898;2023-04-01T06:25:52;26.0;;;21.0;;
21120;SDS011;12519;43.318;21.898;2023-04-01T06:30:57;24.0;;;20.0;;
21120;SDS011;12519;43.318;21.898;2023-04-01T06:36:02;24.0;;;20.0;;
21120;SDS011;12519;43.318;21.898;2023-04-01T06:41:23;22.0;;;18.0;;
21120;SDS011;12519;43.318;21.898;2023-04-01T06:46:47;22.0;;;18.0;;
21120;SDS011;12519;43.318;21.898;2023-04-01T06:51:57;28.0;;;22.0;;
21120;SDS011;12519;43.318;21.898;2023-04-01T06:57:02;28.0;;;22.0;;
21120;SDS011;12519;43.318;21.898;2023-04-01T07:02:14;33.0;;;27.0;;
21120;SDS011;12519;43.318;21.898;2023-04-01T07:07:19;33.0;;;27.0;;
21120;SDS011;12519;43.318;21.898;2023-04-01T07:12:18;30.0;;;24.0;;
21120;SDS011;12519;43.318;21.898;2023-04-01T07:17:25;30.0;;;24.0;;
21120;SDS011;12519;43.318;21.898;2023-04-01T07:22:20;27.0;;;22.0;;
21120;SDS011;12519;43.318;21.898;2023-04-01T07:27:14;27.0;;;22.0;;
21120;SDS011;12519;43.318;21.898;2023-04-01T07:31:56;28.0;;;24.0;;
21120;SDS011;12519;43.318;21.898;2023-04-01T07:37:15;28.0;;;24.0;;
21120;SDS011;12519;43.318;21.898;2023-04-01T07:42:14;28.0;;;26.0;;
21120;SDS011;12519;43.318;21.898;2023-04-01T07:47:24;28.0;;;26.0;;
21120;SDS011;12519;43.318;21.898;2023-04-01T07:52:36;32.0;;;26.0;;
21120;SDS011;12519;43.318;21.898;2023-04-01T07:57:41;32.0;;;26.0;;
21120;SDS011;12519;43.318;21.898;2023-04-01T08:02:41;36.0;;;27.0;;
21120;SDS011;12519;43.318;21.898;2023-04-01T08:08:10;36.0;;;27.0;;
21120;SDS011;12519;43.318;21.898;2023-04-01T08:13:35;34.0;;;28.0;;
21120;SDS011;12519;43.318;21.898;2023-04-01T08:18:58;34.0;;;28.0;;
21120;SDS011;12519;43.318;21.898;2023-04-01T08:24:36;33.0;;;28.0;;
21120;SDS011;12519;43.318;21.898;2023-04-01T08:29:30;33.0;;;28.0;;
21120;SDS011;12519;43.318;21.898;2023-04-01T08:34:39;52.0;;;46.0;;
21120;SDS011;12519;43.318;21.898;2023-04-01T08:39:49;71.0;;;63.0;;
21120;SDS011;12519;43.318;21.898;2023-04-01T08:45:19;71.0;;;63.0;;
21120;SDS011;12519;43.318;21.898;2023-04-01T08:51:10;74.0;;;63.0;;
21120;SDS011;12519;43.318;21.898;2023-04-01T08:56:55;74.0;;;63.0;;
21120;SDS011;12519;43.318;21.898;2023-04-01T09:01:56;77.0;;;63.0;;
21120;SDS011;12519;43.318;21.898;2023-04-01T09:07:27;77.0;;;63.0;;
21120;SDS011;12519;43.318;21.898;2023-04-01T09:12:35;74.0;;;62.0;;
21120;SDS011;12519;43.318;21.898;2023-04-01T09:17:53;74.0;;;62.0;;
21120;SDS011;12519;43.318;21.898;2023-04-01T09:23:16;71.0;;;60.0;;
21120;SDS011;12519;43.318;21.898;2023-04-01T09:28:31;71.0;;;60.0;;
21120;SDS011;12519;43.318;21.898;2023-04-01T09:33:53;80.0;;;68.0;;
21120;SDS011;12519;43.318;21.898;2023-04-01T09:39:34;80.0;;;68.0;;
21120;SDS011;12519;43.318;21.898;2023-04-01T09:44:45;89.0;;;75.0;;
21120;SDS011;12519;43.318;21.898;2023-04-01T09:49:48;89.0;;;75.0;;
21120;SDS011;12519;43.318;21.898;2023-04-01T09:55:22;70.0;;;59.0;;
21120;SDS011;12519;43.318;21.898;2023-04-01T10:06:04;50.0;;;43.0;;
21120;SDS011;12519;43.318;21.898;2023-04-01T10:19:25;42.0;;;36.0;;
21120;SDS011;12519;43.318;21.898;2023-04-01T10:27:21;35.0;;;29.0;;
21120;SDS011;12519;43.318;21.898;2023-04-01T10:33:25;26.0;;;22.0;;
21120;SDS011;12519;43.318;21.898;2023-04-01T10:41:32;18.0;;;16.0;;
21120;SDS011;12519;43.318;21.898;2023-04-01T10:47:26;18.0;;;16.0;;
21120;SDS011;12519;43.318;21.898;2023-04-01T10:56:31;15.0;;;14.0;;
21120;SDS011;12519;43.318;21.898;2023-04-01T11:01:27;12.0;;;11.0;;
21120;SDS011;12519;43.318;21.898;2023-04-01T11:08:51;12.0;;;11.0;;
21120;SDS011;12519;43.318;21.898;2023-04-01T11:17:07;12.0;;;11.0;;
21120;SDS011;12519;43.318;21.898;2023-04-01T11:25:24;11.0;;;11.0;;
21120;SDS011;12519;43.318;21.898;2023-04-01T11:31:11;10.0;;;8.0;;
21120;SDS011;12519;43.318;21.898;2023-04-01T11:36:25;10.0;;;8.0;;
21120;SDS011;12519;43.318;21.898;2023-04-01T11:41:36;8.0;;;6.0;;
21120;SDS011;12519;43.318;21.898;2023-04-01T11:46:33;8.0;;;6.0;;
21120;SDS011;12519;43.318;21.898;2023-04-01T11:51:50;7.0;;;6.0;;
21120;SDS011;12519;43.318;21.898;2023-04-01T11:57:04;7.0;;;6.0;;
21120;SDS011;12519;43.318;21.898;2023-04-01T12:02:29;6.0;;;5.0;;
21120;SDS011;12519;43.318;21.898;2023-04-01T12:07:44;6.0;;;5.0;;
21120;SDS011;12519;43.318;21.898;2023-04-01T12:13:22;6.0;;;5.0;;
21120;SDS011;12519;43.318;21.898;2023-04-01T12:18:38;6.0;;;5.0;;
21120;SDS011;12519;43.318;21.898;2023-04-01T12:23:49;6.0;;;5.0;;
21120;SDS011;12519;43.318;21.898;2023-04-01T12:31:42;6.0;;;5.0;;
21120;SDS011;12519;43.318;21.898;2023-04-01T12:37:00;6.0;;;5.0;;
21120;SDS011;12519;43.318;21.898;2023-04-01T12:42:05;5.0;;;5.0;;
21120;SDS011;12519;43.318;21.898;2023-04-01T12:47:39;5.0;;;5.0;;
21120;SDS011;12519;43.318;21.898;2023-04-01T12:53:59;5.0;;;5.0;;
21120;SDS011;12519;43.318;21.898;2023-04-01T13:02:11;5.0;;;5.0;;
21120;SDS011;12519;43.318;21.898;2023-04-01T13:07:41;5.0;;;5.0;;
21120;SDS011;12519;43.318;21.898;2023-04-01T13:13:23;6.0;;;6.0;;
21120;SDS011;12519;43.318;21.898;2023-04-01T13:19:16;6.0;;;6.0;;
21120;SDS011;12519;43.318;21.898;2023-04-01T13:24:15;7.0;;;6.0;;
21120;SDS011;12519;43.318;21.898;2023-04-01T13:29:25;7.0;;;6.0;;
21120;SDS011;12519;43.318;21.898;2023-04-01T13:34:24;7.0;;;6.0;;
21120;SDS011;12519;43.318;21.898;2023-04-01T13:39:51;7.0;;;6.0;;
21120;SDS011;12519;43.318;21.898;2023-04-01T13:45:36;7.0;;;7.0;;
21120;SDS011;12519;43.318;21.898;2023-04-01T13:51:15;7.0;;;7.0;;
21120;SDS011;12519;43.318;21.898;2023-04-01T13:56:49;7.0;;;7.0;;
21120;SDS011;12519;43.318;21.898;2023-04-01T14:02:33;7.0;;;7.0;;
21120;SDS011;12519;43.318;21.898;2023-04-01T14:08:20;7.0;;;7.0;;
21120;SDS011;12519;43.318;21.898;2023-04-01T14:14:12;6.0;;;6.0;;
21120;SDS011;12519;43.318;21.898;2023-04-01T14:19:53;6.0;;;6.0;;
21120;SDS011;12519;43.318;21.898;2023-04-01T14:25:20;6.0;;;5.0;;
21120;SDS011;12519;43.318;21.898;2023-04-01T14:32:57;5.0;;;4.0;;
21120;SDS011;12519;43.318;21.898;2023-04-01T14:38:24;5.0;;;4.0;;
21120;SDS011;12519;43.318;21.898;2023-04-01T14:43:47;4.0;;;4.0;;
21120;SDS011;12519;43.318;21.898;2023-04-01T14:49:21;4.0;;;4.0;;
21120;SDS011;12519;43.318;21.898;2023-04-01T14:54:18;4.0;;;4.0;;
21120;SDS011;12519;43.318;21.898;2023-04-01T14:59:26;4.0;;;4.0;;
21120;SDS011;12519;43.318;21.898;2023-04-01T15:04:09;4.0;;;3.0;;
21120;SDS011;12519;43.318;21.898;2023-04-01T15:09:50;4.0;;;3.0;;
21120;SDS011;12519;43.318;21.898;2023-04-01T15:15:44;5.0;;;4.0;;
21120;SDS011;12519;43.318;21.898;2023-04-01T15:21:09;6.0;;;5.0;;
21120;SDS011;12519;43.318;21.898;2023-04-01T15:26:54;6.0;;;5.0;;
21120;SDS011;12519;43.318;21.898;2023-04-01T15:32:28;5.0;;;4.0;;
21120;SDS011;12519;43.318;21.898;2023-04-01T15:38:14;5.0;;;4.0;;
21120;SDS011;12519;43.318;21.898;2023-04-01T15:43:27;4.0;;;4.0;;
21120;SDS011;12519;43.318;21.898;2023-04-01T15:48:32;4.0;;;4.0;;
21120;SDS011;12519;43.318;21.898;2023-04-01T15:53:49;4.0;;;4.0;;
21120;SDS011;12519;43.318;21.898;2023-04-01T15:59:29;4.0;;;4.0;;
21120;SDS011;12519;43.318;21.898;2023-04-01T16:04:46;5.0;;;4.0;;
21120;SDS011;12519;43.318;21.898;2023-04-01T16:09:42;5.0;;;4.0;;
21120;SDS011;12519;43.318;21.898;2023-04-01T16:15:13;4.0;;;4.0;;
21120;SDS011;12519;43.318;21.898;2023-04-01T16:20:20;4.0;;;4.0;;
21120;SDS011;12519;43.318;21.898;2023-04-01T16:25:33;4.0;;;3.0;;
21120;SDS011;12519;43.318;21.898;2023-04-01T16:30:42;4.0;;;3.0;;
21120;SDS011;12519;43.318;21.898;2023-04-01T16:35:52;4.0;;;3.0;;
21120;SDS011;12519;43.318;21.898;2023-04-01T16:41:07;4.0;;;3.0;;
21120;SDS011;12519;43.318;21.898;2023-04-01T16:46:15;4.0;;;3.0;;
21120;SDS011;12519;43.318;21.898;2023-04-01T16:51:16;4.0;;;3.0;;
21120;SDS011;12519;43.318;21.898;2023-04-01T16:55:58;4.0;;;3.0;;
21120;SDS011;12519;43.318;21.898;2023-04-01T17:01:00;4.0;;;3.0;;
21120;SDS011;12519;43.318;21.898;2023-04-01T17:06:00;4.0;;;3.0;;
21120;SDS011;12519;43.318;21.898;2023-04-01T17:11:16;6.0;;;5.0;;
21120;SDS011;12519;43.318;21.898;2023-04-01T17:16:16;6.0;;;5.0;;
21120;SDS011;12519;43.318;21.898;2023-04-01T17:21:47;8.0;;;7.0;;
21120;SDS011;12519;43.318;21.898;2023-04-01T17:26:48;8.0;;;7.0;;
21120;SDS011;12519;43.318;21.898;2023-04-01T17:31:54;13.0;;;11.0;;
21120;SDS011;12519;43.318;21.898;2023-04-01T17:37:04;13.0;;;11.0;;
21120;SDS011;12519;43.318;21.898;2023-04-01T17:42:39;18.0;;;15.0;;
21120;SDS011;12519;43.318;21.898;2023-04-01T17:47:59;18.0;;;15.0;;
21120;SDS011;12519;43.318;21.898;2023-04-01T17:53:28;12.0;;;10.0;;
21120;SDS011;12519;43.318;21.898;2023-04-01T17:59:03;12.0;;;10.0;;
21120;SDS011;12519;43.318;21.898;2023-04-01T18:04:37;7.0;;;6.0;;
21120;SDS011;12519;43.318;21.898;2023-04-01T18:10:39;7.0;;;6.0;;
21120;SDS011;12519;43.318;21.898;2023-04-01T18:16:17;9.0;;;8.0;;
21120;SDS011;12519;43.318;21.898;2023-04-01T18:22:01;11.0;;;9.0;;
21120;SDS011;12519;43.318;21.898;2023-04-01T18:27:14;11.0;;;9.0;;
21120;SDS011;12519;43.318;21.898;2023-04-01T18:32:12;12.0;;;10.0;;
21120;SDS011;12519;43.318;21.898;2023-04-01T18:37:14;12.0;;;10.0;;
21120;SDS011;12519;43.318;21.898;2023-04-01T18:42:15;12.0;;;12.0;;
21120;SDS011;12519;43.318;21.898;2023-04-01T18:47:22;12.0;;;12.0;;
21120;SDS011;12519;43.318;21.898;2023-04-01T18:52:19;12.0;;;12.0;;
21120;SDS011;12519;43.318;21.898;2023-04-01T18:57:13;12.0;;;12.0;;
21120;SDS011;12519;43.318;21.898;2023-04-01T19:01:59;12.0;;;11.0;;
21120;SDS011;12519;43.318;21.898;2023-04-01T19:07:39;12.0;;;11.0;;
21120;SDS011;12519;43.318;21.898;2023-04-01T19:12:33;24.0;;;20.0;;
21120;SDS011;12519;43.318;21.898;2023-04-01T19:18:01;24.0;;;20.0;;
21120;SDS011;12519;43.318;21.898;2023-04-01T19:24:03;36.0;;;29.0;;
21120;SDS011;12519;43.318;21.898;2023-04-01T19:30:06;36.0;;;29.0;;
21120;SDS011;12519;43.318;21.898;2023-04-01T19:35:34;28.0;;;24.0;;
21120;SDS011;12519;43.318;21.898;2023-04-01T19:40:49;28.0;;;24.0;;
21120;SDS011;12519;43.318;21.898;2023-04-01T19:45:56;19.0;;;18.0;;
21120;SDS011;12519;43.318;21.898;2023-04-01T19:51:09;21.0;;;18.0;;
21120;SDS011;12519;43.318;21.898;2023-04-01T19:56:07;21.0;;;18.0;;
21120;SDS011;12519;43.318;21.898;2023-04-01T20:00:57;21.0;;;18.0;;
21120;SDS011;12519;43.318;21.898;2023-04-01T20:05:44;23.0;;;19.0;;
21120;SDS011;12519;43.318;21.898;2023-04-01T20:10:47;23.0;;;19.0;;
21120;SDS011;12519;43.318;21.898;2023-04-01T20:16:03;17.0;;;14.0;;
21120;SDS011;12519;43.318;21.898;2023-04-01T20:20:54;17.0;;;14.0;;
21120;SDS011;12519;43.318;21.898;2023-04-01T20:25:54;11.0;;;10.0;;
21120;SDS011;12519;43.318;21.898;2023-04-01T20:30:51;11.0;;;10.0;;
21120;SDS011;12519;43.318;21.898;2023-04-01T20:36:11;11.0;;;10.0;;
21120;SDS011;12519;43.318;21.898;2023-04-01T20:41:27;11.0;;;10.0;;
21120;SDS011;12519;43.318;21.898;2023-04-01T20:47:06;11.0;;;10.0;;
21120;SDS011;12519;43.318;21.898;2023-04-01T20:53:01;12.0;;;10.0;;
21120;SDS011;12519;43.318;21.898;2023-04-01T20:58:18;12.0;;;10.0;;
21120;SDS011;12519;43.318;21.898;2023-04-01T21:04:02;12.0;;;11.0;;
21120;SDS011;12519;43.318;21.898;2023-04-01T21:09:24;12.0;;;11.0;;
21120;SDS011;12519;43.318;21.898;2023-04-01T21:14:51;22.0;;;18.0;;
21120;SDS011;12519;43.318;21.898;2023-04-01T21:20:33;22.0;;;18.0;;
21120;SDS011;12519;43.318;21.898;2023-04-01T21:26:34;31.0;;;26.0;;
21120;SDS011;12519;43.318;21.898;2023-04-01T21:31:53;34.0;;;28.0;;
21120;SDS011;12519;43.318;21.898;2023-04-01T21:37:44;34.0;;;28.0;;
21120;SDS011;12519;43.318;21.898;2023-04-01T21:43:17;37.0;;;30.0;;
21120;SDS011;12519;43.318;21.898;2023-04-01T21:49:40;37.0;;;30.0;;
21120;SDS011;12519;43.318;21.898;2023-04-01T21:58:42;36.0;;;28.0;;
21120;SDS011;12519;43.318;21.898;2023-04-01T22:04:54;36.0;;;26.0;;
21120;SDS011;12519;43.318;21.898;2023-04-01T22:10:05;36.0;;;26.0;;
21120;SDS011;12519;43.318;21.898;2023-04-01T22:15:29;27.0;;;20.0;;
21120;SDS011;12519;43.318;21.898;2023-04-01T22:20:56;27.0;;;20.0;;
21120;SDS011;12519;43.318;21.898;2023-04-01T22:26:00;18.0;;;14.0;;
21120;SDS011;12519;43.318;21.898;2023-04-01T22:31:05;18.0;;;14.0;;
21120;SDS011;12519;43.318;21.898;2023-04-01T22:36:06;15.0;;;12.0;;
21120;SDS011;12519;43.318;21.898;2023-04-01T22:41:12;15.0;;;12.0;;
21120;SDS011;12519;43.318;21.898;2023-04-01T22:46:17;12.0;;;11.0;;
21120;SDS011;12519;43.318;21.898;2023-04-01T22:51:26;12.0;;;11.0;;
21120;SDS011;12519;43.318;21.898;2023-04-01T22:56:28;12.0;;;10.0;;
21120;SDS011;12519;43.318;21.898;2023-04-01T23:01:24;12.0;;;10.0;;
21120;SDS011;12519;43.318;21.898;2023-04-01T23:06:19;13.0;;;10.0;;
21120;SDS011;12519;43.318;21.898;2023-04-01T23:11:15;13.0;;;10.0;;
21120;SDS011;12519;43.318;21.898;2023-04-01T23:16:10;11.0;;;9.0;;
21120;SDS011;12519;43.318;21.898;2023-04-01T23:20:54;11.0;;;9.0;;
21120;SDS011;12519;43.318;21.898;2023-04-01T23:26:10;9.0;;;8.0;;
21120;SDS011;12519;43.318;21.898;2023-04-01T23:31:32;9.0;;;8.0;;
21120;SDS011;12519;43.318;21.898;2023-04-01T23:36:18;22.0;;;20.0;;
21120;SDS011;12519;43.318;21.898;2023-04-01T23:40:55;22.0;;;20.0;;
21120;SDS011;12519;43.318;21.898;2023-04-01T23:45:32;36.0;;;33.0;;
21120;SDS011;12519;43.318;21.898;2023-04-01T23:50:10;36.0;;;33.0;;
21120;SDS011;12519;43.318;21.898;2023-04-01T23:55:01;34.0;;;29.0;;
